sensor_id;sensor_type;location;lat;lon;timestamp;P1;durP1;ratioP1;P2;durP2;ratioP2
82513;SDS011;72858;52.130;5.584;2023-11-21T00:01:45;39.55;;;19.35;;
82513;SDS011;72858;52.130;5.584;2023-11-21T00:04:10;33.28;;;18.90;;
82513;SDS011;72858;52.130;5.584;2023-11-21T00:06:36;32.15;;;19.63;;
82513;SDS011;72858;52.130;5.584;2023-11-21T00:09:01;32.17;;;19.33;;
82513;SDS011;72858;52.130;5.584;2023-11-21T00:11:27;34.33;;;18.85;;
82513;SDS011;72858;52.130;5.584;2023-11-21T00:13:52;31.80;;;19.57;;
82513;SDS011;72858;52.130;5.584;2023-11-21T00:16:17;28.38;;;18.27;;
82513;SDS011;72858;52.130;5.584;2023-11-21T00:18:43;27.20;;;17.42;;
82513;SDS011;72858;52.130;5.584;2023-11-21T00:21:08;27.58;;;17.65;;
82513;SDS011;72858;52.130;5.584;2023-11-21T00:23:34;27.77;;;17.33;;
82513;SDS011;72858;52.130;5.584;2023-11-21T00:26:00;24.25;;;16.90;;
82513;SDS011;72858;52.130;5.584;2023-11-21T00:28:26;26.83;;;16.02;;
82513;SDS011;72858;52.130;5.584;2023-11-21T00:30:51;23.45;;;14.90;;
82513;SDS011;72858;52.130;5.584;2023-11-21T00:33:16;20.57;;;14.80;;
82513;SDS011;72858;52.130;5.584;2023-11-21T00:35:41;19.23;;;14.30;;
82513;SDS011;72858;52.130;5.584;2023-11-21T00:38:06;18.60;;;14.20;;
82513;SDS011;72858;52.130;5.584;2023-11-21T00:40:33;19.55;;;14.10;;
82513;SDS011;72858;52.130;5.584;2023-11-21T00:42:58;21.10;;;15.37;;
82513;SDS011;72858;52.130;5.584;2023-11-21T00:45:23;24.13;;;16.42;;
82513;SDS011;72858;52.130;5.584;2023-11-21T00:47:49;23.42;;;15.35;;
82513;SDS011;72858;52.130;5.584;2023-11-21T00:50:14;22.63;;;15.27;;
82513;SDS011;72858;52.130;5.584;2023-11-21T00:52:40;21.77;;;14.43;;
82513;SDS011;72858;52.130;5.584;2023-11-21T00:55:06;32.08;;;16.33;;
82513;SDS011;72858;52.130;5.584;2023-11-21T00:57:32;23.48;;;15.98;;
82513;SDS011;72858;52.130;5.584;2023-11-21T00:59:57;20.80;;;13.50;;
82513;SDS011;72858;52.130;5.584;2023-11-21T01:02:22;19.87;;;13.97;;
82513;SDS011;72858;52.130;5.584;2023-11-21T01:04:48;24.67;;;14.35;;
82513;SDS011;72858;52.130;5.584;2023-11-21T01:07:13;20.88;;;13.80;;
82513;SDS011;72858;52.130;5.584;2023-11-21T01:09:38;25.83;;;15.60;;
82513;SDS011;72858;52.130;5.584;2023-11-21T01:12:03;23.98;;;16.48;;
82513;SDS011;72858;52.130;5.584;2023-11-21T01:14:29;25.98;;;17.05;;
82513;SDS011;72858;52.130;5.584;2023-11-21T01:16:54;29.33;;;17.10;;
82513;SDS011;72858;52.130;5.584;2023-11-21T01:19:19;27.05;;;17.35;;
82513;SDS011;72858;52.130;5.584;2023-11-21T01:21:44;22.83;;;16.67;;
82513;SDS011;72858;52.130;5.584;2023-11-21T01:24:12;31.97;;;18.43;;
82513;SDS011;72858;52.130;5.584;2023-11-21T01:26:40;27.45;;;17.52;;
82513;SDS011;72858;52.130;5.584;2023-11-21T01:29:05;27.92;;;17.65;;
82513;SDS011;72858;52.130;5.584;2023-11-21T01:31:31;28.13;;;16.90;;
82513;SDS011;72858;52.130;5.584;2023-11-21T01:33:56;30.10;;;18.23;;
82513;SDS011;72858;52.130;5.584;2023-11-21T01:36:21;24.02;;;17.05;;
82513;SDS011;72858;52.130;5.584;2023-11-21T01:38:47;24.10;;;17.13;;
82513;SDS011;72858;52.130;5.584;2023-11-21T01:41:13;25.83;;;18.40;;
82513;SDS011;72858;52.130;5.584;2023-11-21T01:43:38;28.15;;;17.45;;
82513;SDS011;72858;52.130;5.584;2023-11-21T01:46:03;32.37;;;19.00;;
82513;SDS011;72858;52.130;5.584;2023-11-21T01:48:31;26.27;;;18.33;;
82513;SDS011;72858;52.130;5.584;2023-11-21T01:50:56;35.72;;;20.65;;
82513;SDS011;72858;52.130;5.584;2023-11-21T01:53:23;30.77;;;18.48;;
82513;SDS011;72858;52.130;5.584;2023-11-21T01:55:49;36.35;;;19.75;;
82513;SDS011;72858;52.130;5.584;2023-11-21T01:58:14;30.50;;;18.27;;
82513;SDS011;72858;52.130;5.584;2023-11-21T02:00:41;37.47;;;19.70;;
82513;SDS011;72858;52.130;5.584;2023-11-21T02:03:06;33.58;;;19.05;;
82513;SDS011;72858;52.130;5.584;2023-11-21T02:05:32;35.25;;;20.77;;
82513;SDS011;72858;52.130;5.584;2023-11-21T02:07:57;36.00;;;19.63;;
82513;SDS011;72858;52.130;5.584;2023-11-21T02:10:22;35.80;;;20.73;;
82513;SDS011;72858;52.130;5.584;2023-11-21T02:12:51;34.28;;;20.88;;
82513;SDS011;72858;52.130;5.584;2023-11-21T02:15:16;33.38;;;20.42;;
82513;SDS011;72858;52.130;5.584;2023-11-21T02:17:45;34.55;;;21.92;;
82513;SDS011;72858;52.130;5.584;2023-11-21T02:20:12;34.17;;;20.45;;
82513;SDS011;72858;52.130;5.584;2023-11-21T02:22:41;40.15;;;22.23;;
82513;SDS011;72858;52.130;5.584;2023-11-21T02:25:07;37.58;;;22.70;;
82513;SDS011;72858;52.130;5.584;2023-11-21T02:27:32;37.80;;;22.25;;
82513;SDS011;72858;52.130;5.584;2023-11-21T02:29:58;37.67;;;24.13;;
82513;SDS011;72858;52.130;5.584;2023-11-21T02:32:23;40.38;;;24.42;;
82513;SDS011;72858;52.130;5.584;2023-11-21T02:34:50;44.97;;;25.02;;
82513;SDS011;72858;52.130;5.584;2023-11-21T02:37:16;44.20;;;24.63;;
82513;SDS011;72858;52.130;5.584;2023-11-21T02:39:41;45.07;;;25.60;;
82513;SDS011;72858;52.130;5.584;2023-11-21T02:42:06;41.00;;;23.33;;
82513;SDS011;72858;52.130;5.584;2023-11-21T02:44:31;43.75;;;23.90;;
82513;SDS011;72858;52.130;5.584;2023-11-21T02:46:56;42.93;;;24.13;;
82513;SDS011;72858;52.130;5.584;2023-11-21T02:49:22;34.20;;;21.17;;
82513;SDS011;72858;52.130;5.584;2023-11-21T02:51:48;32.85;;;21.08;;
82513;SDS011;72858;52.130;5.584;2023-11-21T02:54:13;36.30;;;21.20;;
82513;SDS011;72858;52.130;5.584;2023-11-21T02:56:38;33.47;;;21.85;;
82513;SDS011;72858;52.130;5.584;2023-11-21T02:59:05;34.28;;;21.38;;
82513;SDS011;72858;52.130;5.584;2023-11-21T03:01:30;43.25;;;23.70;;
82513;SDS011;72858;52.130;5.584;2023-11-21T03:03:56;41.33;;;23.98;;
82513;SDS011;72858;52.130;5.584;2023-11-21T03:06:21;35.80;;;22.80;;
82513;SDS011;72858;52.130;5.584;2023-11-21T03:08:47;34.55;;;22.70;;
82513;SDS011;72858;52.130;5.584;2023-11-21T03:11:12;37.05;;;22.95;;
82513;SDS011;72858;52.130;5.584;2023-11-21T03:13:38;39.10;;;23.33;;
82513;SDS011;72858;52.130;5.584;2023-11-21T03:16:04;36.58;;;21.48;;
82513;SDS011;72858;52.130;5.584;2023-11-21T03:18:29;31.30;;;21.20;;
82513;SDS011;72858;52.130;5.584;2023-11-21T03:20:54;33.17;;;21.27;;
82513;SDS011;72858;52.130;5.584;2023-11-21T03:23:20;29.70;;;19.77;;
82513;SDS011;72858;52.130;5.584;2023-11-21T03:25:45;25.67;;;18.85;;
82513;SDS011;72858;52.130;5.584;2023-11-21T03:28:10;26.57;;;19.37;;
82513;SDS011;72858;52.130;5.584;2023-11-21T03:30:35;30.00;;;20.77;;
82513;SDS011;72858;52.130;5.584;2023-11-21T03:33:00;33.17;;;20.30;;
82513;SDS011;72858;52.130;5.584;2023-11-21T03:35:26;27.95;;;20.35;;
82513;SDS011;72858;52.130;5.584;2023-11-21T03:37:51;30.48;;;18.35;;
82513;SDS011;72858;52.130;5.584;2023-11-21T03:40:16;29.73;;;18.55;;
82513;SDS011;72858;52.130;5.584;2023-11-21T03:42:41;26.17;;;18.03;;
82513;SDS011;72858;52.130;5.584;2023-11-21T03:45:07;23.65;;;16.83;;
82513;SDS011;72858;52.130;5.584;2023-11-21T03:47:33;23.15;;;17.35;;
82513;SDS011;72858;52.130;5.584;2023-11-21T03:49:58;26.83;;;16.63;;
82513;SDS011;72858;52.130;5.584;2023-11-21T03:52:24;23.98;;;16.70;;
82513;SDS011;72858;52.130;5.584;2023-11-21T03:54:49;23.52;;;16.33;;
82513;SDS011;72858;52.130;5.584;2023-11-21T03:57:14;26.30;;;16.40;;
82513;SDS011;72858;52.130;5.584;2023-11-21T03:59:40;27.63;;;17.65;;
82513;SDS011;72858;52.130;5.584;2023-11-21T04:02:06;26.75;;;17.45;;
82513;SDS011;72858;52.130;5.584;2023-11-21T04:04:32;30.48;;;18.33;;
82513;SDS011;72858;52.130;5.584;2023-11-21T04:06:57;29.63;;;18.77;;
82513;SDS011;72858;52.130;5.584;2023-11-21T04:09:23;33.37;;;19.10;;
82513;SDS011;72858;52.130;5.584;2023-11-21T04:11:50;32.10;;;19.08;;
82513;SDS011;72858;52.130;5.584;2023-11-21T04:14:15;27.80;;;19.13;;
82513;SDS011;72858;52.130;5.584;2023-11-21T04:16:40;34.80;;;19.53;;
82513;SDS011;72858;52.130;5.584;2023-11-21T04:19:05;29.88;;;19.08;;
82513;SDS011;72858;52.130;5.584;2023-11-21T04:21:31;32.90;;;18.27;;
82513;SDS011;72858;52.130;5.584;2023-11-21T04:23:58;29.63;;;18.60;;
82513;SDS011;72858;52.130;5.584;2023-11-21T04:26:23;34.50;;;18.80;;
82513;SDS011;72858;52.130;5.584;2023-11-21T04:28:48;32.97;;;19.20;;
82513;SDS011;72858;52.130;5.584;2023-11-21T04:31:13;38.38;;;19.55;;
82513;SDS011;72858;52.130;5.584;2023-11-21T04:33:39;36.05;;;19.73;;
82513;SDS011;72858;52.130;5.584;2023-11-21T04:36:04;32.60;;;20.37;;
82513;SDS011;72858;52.130;5.584;2023-11-21T04:38:29;33.67;;;19.80;;
82513;SDS011;72858;52.130;5.584;2023-11-21T04:40:54;36.60;;;20.80;;
82513;SDS011;72858;52.130;5.584;2023-11-21T04:43:20;42.20;;;22.17;;
82513;SDS011;72858;52.130;5.584;2023-11-21T04:45:45;40.40;;;21.77;;
82513;SDS011;72858;52.130;5.584;2023-11-21T04:48:10;38.47;;;22.42;;
82513;SDS011;72858;52.130;5.584;2023-11-21T04:50:35;36.40;;;20.97;;
82513;SDS011;72858;52.130;5.584;2023-11-21T04:53:00;40.07;;;21.67;;
82513;SDS011;72858;52.130;5.584;2023-11-21T04:55:26;44.17;;;22.77;;
82513;SDS011;72858;52.130;5.584;2023-11-21T04:57:53;47.20;;;25.00;;
82513;SDS011;72858;52.130;5.584;2023-11-21T05:00:18;47.33;;;23.98;;
82513;SDS011;72858;52.130;5.584;2023-11-21T05:02:43;50.75;;;25.77;;
82513;SDS011;72858;52.130;5.584;2023-11-21T05:05:09;44.85;;;24.35;;
82513;SDS011;72858;52.130;5.584;2023-11-21T05:07:35;50.72;;;24.35;;
82513;SDS011;72858;52.130;5.584;2023-11-21T05:10:01;44.25;;;22.00;;
82513;SDS011;72858;52.130;5.584;2023-11-21T05:12:30;47.25;;;21.85;;
82513;SDS011;72858;52.130;5.584;2023-11-21T05:14:58;44.70;;;22.60;;
82513;SDS011;72858;52.130;5.584;2023-11-21T05:17:23;48.27;;;22.93;;
82513;SDS011;72858;52.130;5.584;2023-11-21T05:19:48;52.77;;;24.10;;
82513;SDS011;72858;52.130;5.584;2023-11-21T05:22:13;54.77;;;24.53;;
82513;SDS011;72858;52.130;5.584;2023-11-21T05:24:38;52.17;;;26.03;;
82513;SDS011;72858;52.130;5.584;2023-11-21T05:27:04;52.30;;;26.13;;
82513;SDS011;72858;52.130;5.584;2023-11-21T05:29:29;60.83;;;27.58;;
82513;SDS011;72858;52.130;5.584;2023-11-21T05:31:54;54.90;;;25.23;;
82513;SDS011;72858;52.130;5.584;2023-11-21T05:34:20;52.33;;;25.13;;
82513;SDS011;72858;52.130;5.584;2023-11-21T05:36:46;49.53;;;26.15;;
82513;SDS011;72858;52.130;5.584;2023-11-21T05:39:11;60.00;;;27.88;;
82513;SDS011;72858;52.130;5.584;2023-11-21T05:41:36;50.90;;;26.30;;
82513;SDS011;72858;52.130;5.584;2023-11-21T05:44:02;54.17;;;26.27;;
82513;SDS011;72858;52.130;5.584;2023-11-21T05:46:27;55.83;;;28.83;;
82513;SDS011;72858;52.130;5.584;2023-11-21T05:48:52;63.83;;;28.67;;
82513;SDS011;72858;52.130;5.584;2023-11-21T05:51:17;54.67;;;27.43;;
82513;SDS011;72858;52.130;5.584;2023-11-21T05:53:43;56.30;;;28.30;;
82513;SDS011;72858;52.130;5.584;2023-11-21T05:56:08;60.80;;;28.80;;
82513;SDS011;72858;52.130;5.584;2023-11-21T05:58:33;63.30;;;29.90;;
82513;SDS011;72858;52.130;5.584;2023-11-21T06:00:59;54.50;;;28.38;;
82513;SDS011;72858;52.130;5.584;2023-11-21T06:03:24;55.05;;;28.50;;
82513;SDS011;72858;52.130;5.584;2023-11-21T06:05:50;57.15;;;27.92;;
82513;SDS011;72858;52.130;5.584;2023-11-21T06:08:15;59.33;;;27.95;;
82513;SDS011;72858;52.130;5.584;2023-11-21T06:10:42;69.95;;;29.58;;
82513;SDS011;72858;52.130;5.584;2023-11-21T06:13:08;70.32;;;30.73;;
82513;SDS011;72858;52.130;5.584;2023-11-21T06:15:35;72.03;;;31.50;;
82513;SDS011;72858;52.130;5.584;2023-11-21T06:18:00;56.73;;;29.33;;
82513;SDS011;72858;52.130;5.584;2023-11-21T06:20:25;58.53;;;30.53;;
82513;SDS011;72858;52.130;5.584;2023-11-21T06:22:51;58.90;;;28.02;;
82513;SDS011;72858;52.130;5.584;2023-11-21T06:25:16;54.47;;;27.80;;
82513;SDS011;72858;52.130;5.584;2023-11-21T06:27:43;62.50;;;29.48;;
82513;SDS011;72858;52.130;5.584;2023-11-21T06:30:09;60.03;;;28.45;;
82513;SDS011;72858;52.130;5.584;2023-11-21T06:32:36;62.58;;;29.15;;
82513;SDS011;72858;52.130;5.584;2023-11-21T06:35:02;54.40;;;28.17;;
82513;SDS011;72858;52.130;5.584;2023-11-21T06:37:29;46.47;;;24.73;;
82513;SDS011;72858;52.130;5.584;2023-11-21T06:39:56;45.10;;;25.15;;
82513;SDS011;72858;52.130;5.584;2023-11-21T06:42:22;58.42;;;28.02;;
82513;SDS011;72858;52.130;5.584;2023-11-21T06:44:47;53.47;;;26.45;;
82513;SDS011;72858;52.130;5.584;2023-11-21T06:47:13;50.70;;;26.73;;
82513;SDS011;72858;52.130;5.584;2023-11-21T06:49:38;55.63;;;27.48;;
82513;SDS011;72858;52.130;5.584;2023-11-21T06:52:04;59.00;;;29.23;;
82513;SDS011;72858;52.130;5.584;2023-11-21T06:54:30;65.30;;;30.27;;
82513;SDS011;72858;52.130;5.584;2023-11-21T06:56:56;60.53;;;29.85;;
82513;SDS011;72858;52.130;5.584;2023-11-21T06:59:21;62.80;;;30.77;;
82513;SDS011;72858;52.130;5.584;2023-11-21T07:01:46;72.75;;;32.50;;
82513;SDS011;72858;52.130;5.584;2023-11-21T07:04:12;63.70;;;32.10;;
82513;SDS011;72858;52.130;5.584;2023-11-21T07:06:37;68.53;;;33.97;;
82513;SDS011;72858;52.130;5.584;2023-11-21T07:09:02;70.47;;;32.70;;
82513;SDS011;72858;52.130;5.584;2023-11-21T07:11:28;72.05;;;32.90;;
82513;SDS011;72858;52.130;5.584;2023-11-21T07:13:53;70.13;;;32.60;;
82513;SDS011;72858;52.130;5.584;2023-11-21T07:16:18;66.50;;;32.83;;
82513;SDS011;72858;52.130;5.584;2023-11-21T07:18:44;54.35;;;30.35;;
82513;SDS011;72858;52.130;5.584;2023-11-21T07:21:09;62.63;;;32.40;;
82513;SDS011;72858;52.130;5.584;2023-11-21T07:23:36;62.05;;;30.90;;
82513;SDS011;72858;52.130;5.584;2023-11-21T07:26:02;57.97;;;31.10;;
82513;SDS011;72858;52.130;5.584;2023-11-21T07:28:27;59.28;;;30.00;;
82513;SDS011;72858;52.130;5.584;2023-11-21T07:30:53;57.83;;;27.87;;
82513;SDS011;72858;52.130;5.584;2023-11-21T07:33:18;47.50;;;26.65;;
82513;SDS011;72858;52.130;5.584;2023-11-21T07:35:43;62.47;;;28.13;;
82513;SDS011;72858;52.130;5.584;2023-11-21T07:38:08;61.17;;;28.92;;
82513;SDS011;72858;52.130;5.584;2023-11-21T07:40:34;53.70;;;28.02;;
82513;SDS011;72858;52.130;5.584;2023-11-21T07:42:59;61.33;;;28.00;;
82513;SDS011;72858;52.130;5.584;2023-11-21T07:45:25;61.10;;;29.25;;
82513;SDS011;72858;52.130;5.584;2023-11-21T07:47:52;72.03;;;30.88;;
82513;SDS011;72858;52.130;5.584;2023-11-21T07:50:17;68.32;;;30.40;;
82513;SDS011;72858;52.130;5.584;2023-11-21T07:52:43;68.80;;;32.13;;
82513;SDS011;72858;52.130;5.584;2023-11-21T07:55:08;75.40;;;32.10;;
82513;SDS011;72858;52.130;5.584;2023-11-21T07:57:33;67.57;;;29.63;;
82513;SDS011;72858;52.130;5.584;2023-11-21T07:59:59;56.00;;;28.60;;
82513;SDS011;72858;52.130;5.584;2023-11-21T08:02:25;55.92;;;26.88;;
82513;SDS011;72858;52.130;5.584;2023-11-21T08:04:51;60.97;;;28.92;;
82513;SDS011;72858;52.130;5.584;2023-11-21T08:07:17;66.10;;;31.20;;
82513;SDS011;72858;52.130;5.584;2023-11-21T08:09:42;39.55;;;23.15;;
82513;SDS011;72858;52.130;5.584;2023-11-21T08:12:09;44.45;;;24.05;;
82513;SDS011;72858;52.130;5.584;2023-11-21T08:14:35;47.78;;;25.08;;
82513;SDS011;72858;52.130;5.584;2023-11-21T08:17:04;46.72;;;24.95;;
82513;SDS011;72858;52.130;5.584;2023-11-21T08:19:29;47.22;;;23.48;;
82513;SDS011;72858;52.130;5.584;2023-11-21T08:21:54;53.77;;;26.23;;
82513;SDS011;72858;52.130;5.584;2023-11-21T08:24:19;57.43;;;27.03;;
82513;SDS011;72858;52.130;5.584;2023-11-21T08:26:44;106.07;;;55.25;;
82513;SDS011;72858;52.130;5.584;2023-11-21T08:29:10;69.87;;;36.13;;
82513;SDS011;72858;52.130;5.584;2023-11-21T08:31:35;53.87;;;29.73;;
82513;SDS011;72858;52.130;5.584;2023-11-21T08:34:01;52.75;;;24.67;;
82513;SDS011;72858;52.130;5.584;2023-11-21T08:36:27;34.90;;;21.73;;
82513;SDS011;72858;52.130;5.584;2023-11-21T08:38:52;50.47;;;25.73;;
82513;SDS011;72858;52.130;5.584;2023-11-21T08:41:17;44.33;;;24.57;;
82513;SDS011;72858;52.130;5.584;2023-11-21T08:43:42;53.78;;;25.95;;
82513;SDS011;72858;52.130;5.584;2023-11-21T08:46:08;61.97;;;27.75;;
82513;SDS011;72858;52.130;5.584;2023-11-21T08:48:36;46.03;;;23.35;;
82513;SDS011;72858;52.130;5.584;2023-11-21T08:51:02;54.25;;;25.48;;
82513;SDS011;72858;52.130;5.584;2023-11-21T08:53:27;43.90;;;23.40;;
82513;SDS011;72858;52.130;5.584;2023-11-21T08:55:52;61.73;;;27.40;;
82513;SDS011;72858;52.130;5.584;2023-11-21T08:58:19;45.53;;;24.17;;
82513;SDS011;72858;52.130;5.584;2023-11-21T09:00:44;67.20;;;27.30;;
82513;SDS011;72858;52.130;5.584;2023-11-21T09:03:11;53.97;;;26.52;;
82513;SDS011;72858;52.130;5.584;2023-11-21T09:05:39;40.85;;;21.48;;
82513;SDS011;72858;52.130;5.584;2023-11-21T09:08:04;46.35;;;24.67;;
82513;SDS011;72858;52.130;5.584;2023-11-21T09:10:30;48.28;;;26.17;;
82513;SDS011;72858;52.130;5.584;2023-11-21T09:12:55;51.85;;;26.15;;
82513;SDS011;72858;52.130;5.584;2023-11-21T09:15:20;46.07;;;24.33;;
82513;SDS011;72858;52.130;5.584;2023-11-21T09:17:45;55.03;;;27.23;;
82513;SDS011;72858;52.130;5.584;2023-11-21T09:20:11;45.88;;;24.58;;
82513;SDS011;72858;52.130;5.584;2023-11-21T09:22:36;42.95;;;23.48;;
82513;SDS011;72858;52.130;5.584;2023-11-21T09:25:02;44.45;;;24.15;;
82513;SDS011;72858;52.130;5.584;2023-11-21T09:27:30;44.78;;;23.17;;
82513;SDS011;72858;52.130;5.584;2023-11-21T09:29:55;41.75;;;23.55;;
82513;SDS011;72858;52.130;5.584;2023-11-21T09:32:23;40.47;;;22.20;;
82513;SDS011;72858;52.130;5.584;2023-11-21T09:34:48;42.80;;;23.47;;
82513;SDS011;72858;52.130;5.584;2023-11-21T09:37:13;47.88;;;24.13;;
82513;SDS011;72858;52.130;5.584;2023-11-21T09:39:39;42.55;;;23.73;;
82513;SDS011;72858;52.130;5.584;2023-11-21T09:44:54;41.83;;;23.13;;
82513;SDS011;72858;52.130;5.584;2023-11-21T09:47:16;39.97;;;22.42;;
82513;SDS011;72858;52.130;5.584;2023-11-21T09:49:46;34.88;;;21.73;;
82513;SDS011;72858;52.130;5.584;2023-11-21T09:52:12;35.55;;;21.65;;
82513;SDS011;72858;52.130;5.584;2023-11-21T09:54:42;34.50;;;20.10;;
82513;SDS011;72858;52.130;5.584;2023-11-21T09:57:08;33.85;;;21.23;;
82513;SDS011;72858;52.130;5.584;2023-11-21T09:59:34;34.65;;;20.45;;
82513;SDS011;72858;52.130;5.584;2023-11-21T10:02:00;28.40;;;19.35;;
82513;SDS011;72858;52.130;5.584;2023-11-21T10:04:27;28.48;;;18.98;;
82513;SDS011;72858;52.130;5.584;2023-11-21T10:06:53;29.35;;;18.45;;
82513;SDS011;72858;52.130;5.584;2023-11-21T10:09:19;29.63;;;18.90;;
82513;SDS011;72858;52.130;5.584;2023-11-21T10:11:45;30.17;;;17.83;;
82513;SDS011;72858;52.130;5.584;2023-11-21T10:14:11;24.20;;;17.40;;
82513;SDS011;72858;52.130;5.584;2023-11-21T10:16:40;26.83;;;17.00;;
82513;SDS011;72858;52.130;5.584;2023-11-21T10:19:05;33.85;;;18.98;;
82513;SDS011;72858;52.130;5.584;2023-11-21T10:21:33;26.27;;;17.88;;
82513;SDS011;72858;52.130;5.584;2023-11-21T10:23:58;28.17;;;18.47;;
82513;SDS011;72858;52.130;5.584;2023-11-21T10:26:24;28.58;;;18.15;;
82513;SDS011;72858;52.130;5.584;2023-11-21T10:29:01;28.15;;;18.42;;
82513;SDS011;72858;52.130;5.584;2023-11-21T10:31:28;26.08;;;16.13;;
82513;SDS011;72858;52.130;5.584;2023-11-21T10:33:54;25.75;;;16.98;;
82513;SDS011;72858;52.130;5.584;2023-11-21T10:36:26;25.15;;;16.15;;
82513;SDS011;72858;52.130;5.584;2023-11-21T10:38:55;28.90;;;16.42;;
82513;SDS011;72858;52.130;5.584;2023-11-21T10:41:20;28.80;;;17.47;;
82513;SDS011;72858;52.130;5.584;2023-11-21T10:43:45;28.85;;;17.60;;
82513;SDS011;72858;52.130;5.584;2023-11-21T10:46:10;30.77;;;17.50;;
82513;SDS011;72858;52.130;5.584;2023-11-21T10:48:36;30.08;;;17.95;;
82513;SDS011;72858;52.130;5.584;2023-11-21T10:51:06;31.08;;;17.42;;
82513;SDS011;72858;52.130;5.584;2023-11-21T10:53:32;26.23;;;16.08;;
82513;SDS011;72858;52.130;5.584;2023-11-21T10:56:05;27.52;;;17.08;;
82513;SDS011;72858;52.130;5.584;2023-11-21T10:58:32;23.83;;;14.85;;
82513;SDS011;72858;52.130;5.584;2023-11-21T11:00:57;31.80;;;17.00;;
82513;SDS011;72858;52.130;5.584;2023-11-21T11:03:23;26.13;;;15.52;;
82513;SDS011;72858;52.130;5.584;2023-11-21T11:05:48;26.48;;;14.95;;
82513;SDS011;72858;52.130;5.584;2023-11-21T11:08:16;26.35;;;15.23;;
82513;SDS011;72858;52.130;5.584;2023-11-21T11:10:44;29.23;;;15.50;;
82513;SDS011;72858;52.130;5.584;2023-11-21T11:13:11;25.63;;;15.15;;
82513;SDS011;72858;52.130;5.584;2023-11-21T11:15:39;23.35;;;14.00;;
82513;SDS011;72858;52.130;5.584;2023-11-21T11:18:04;27.40;;;14.98;;
82513;SDS011;72858;52.130;5.584;2023-11-21T11:20:34;23.80;;;14.57;;
82513;SDS011;72858;52.130;5.584;2023-11-21T11:28:17;28.20;;;14.73;;
82513;SDS011;72858;52.130;5.584;2023-11-21T11:33:19;25.13;;;14.45;;
82513;SDS011;72858;52.130;5.584;2023-11-21T11:38:27;27.55;;;14.25;;
82513;SDS011;72858;52.130;5.584;2023-11-21T11:40:55;24.90;;;14.18;;
82513;SDS011;72858;52.130;5.584;2023-11-21T11:43:24;26.52;;;14.98;;
82513;SDS011;72858;52.130;5.584;2023-11-21T11:45:50;24.38;;;14.80;;
82513;SDS011;72858;52.130;5.584;2023-11-21T11:48:17;25.52;;;14.55;;
82513;SDS011;72858;52.130;5.584;2023-11-21T11:51:00;27.40;;;16.00;;
82513;SDS011;72858;52.130;5.584;2023-11-21T11:53:28;29.70;;;16.63;;
82513;SDS011;72858;52.130;5.584;2023-11-21T11:55:58;25.70;;;15.88;;
82513;SDS011;72858;52.130;5.584;2023-11-21T11:58:42;24.48;;;15.38;;
82513;SDS011;72858;52.130;5.584;2023-11-21T12:01:08;24.83;;;15.70;;
82513;SDS011;72858;52.130;5.584;2023-11-21T12:03:33;23.60;;;15.03;;
82513;SDS011;72858;52.130;5.584;2023-11-21T12:05:58;31.10;;;17.67;;
82513;SDS011;72858;52.130;5.584;2023-11-21T12:08:23;28.92;;;16.35;;
82513;SDS011;72858;52.130;5.584;2023-11-21T12:10:56;32.92;;;17.20;;
82513;SDS011;72858;52.130;5.584;2023-11-21T12:13:22;28.33;;;16.65;;
82513;SDS011;72858;52.130;5.584;2023-11-21T12:15:48;28.38;;;16.88;;
82513;SDS011;72858;52.130;5.584;2023-11-21T12:18:13;27.83;;;16.67;;
82513;SDS011;72858;52.130;5.584;2023-11-21T12:20:39;29.48;;;16.55;;
82513;SDS011;72858;52.130;5.584;2023-11-21T12:23:06;28.35;;;18.10;;
82513;SDS011;72858;52.130;5.584;2023-11-21T12:25:31;27.58;;;16.75;;
82513;SDS011;72858;52.130;5.584;2023-11-21T12:27:58;30.70;;;19.10;;
82513;SDS011;72858;52.130;5.584;2023-11-21T12:30:24;27.65;;;16.40;;
82513;SDS011;72858;52.130;5.584;2023-11-21T12:32:52;25.95;;;16.88;;
82513;SDS011;72858;52.130;5.584;2023-11-21T12:35:18;27.05;;;17.10;;
82513;SDS011;72858;52.130;5.584;2023-11-21T12:37:47;26.60;;;17.38;;
82513;SDS011;72858;52.130;5.584;2023-11-21T12:40:12;27.45;;;17.48;;
82513;SDS011;72858;52.130;5.584;2023-11-21T12:42:43;25.20;;;17.00;;
82513;SDS011;72858;52.130;5.584;2023-11-21T12:45:18;24.02;;;16.58;;
82513;SDS011;72858;52.130;5.584;2023-11-21T12:47:45;25.23;;;16.90;;
82513;SDS011;72858;52.130;5.584;2023-11-21T12:50:11;25.25;;;16.52;;
82513;SDS011;72858;52.130;5.584;2023-11-21T12:52:42;26.20;;;17.23;;
82513;SDS011;72858;52.130;5.584;2023-11-21T12:55:18;29.40;;;17.70;;
82513;SDS011;72858;52.130;5.584;2023-11-21T12:57:47;26.95;;;18.50;;
82513;SDS011;72858;52.130;5.584;2023-11-21T13:00:15;28.17;;;18.33;;
82513;SDS011;72858;52.130;5.584;2023-11-21T13:02:52;29.08;;;17.75;;
82513;SDS011;72858;52.130;5.584;2023-11-21T13:05:26;26.33;;;16.92;;
82513;SDS011;72858;52.130;5.584;2023-11-21T13:07:51;29.48;;;17.38;;
82513;SDS011;72858;52.130;5.584;2023-11-21T13:10:19;25.08;;;16.80;;
82513;SDS011;72858;52.130;5.584;2023-11-21T13:12:45;24.73;;;15.90;;
82513;SDS011;72858;52.130;5.584;2023-11-21T13:15:13;30.70;;;18.85;;
82513;SDS011;72858;52.130;5.584;2023-11-21T13:17:38;24.13;;;15.93;;
82513;SDS011;72858;52.130;5.584;2023-11-21T13:20:05;24.33;;;16.75;;
82513;SDS011;72858;52.130;5.584;2023-11-21T13:22:31;27.50;;;17.25;;
82513;SDS011;72858;52.130;5.584;2023-11-21T13:24:58;21.77;;;15.25;;
82513;SDS011;72858;52.130;5.584;2023-11-21T13:27:23;22.27;;;13.90;;
82513;SDS011;72858;52.130;5.584;2023-11-21T13:29:50;17.92;;;12.75;;
82513;SDS011;72858;52.130;5.584;2023-11-21T13:32:16;15.07;;;11.10;;
82513;SDS011;72858;52.130;5.584;2023-11-21T13:34:45;11.52;;;8.80;;
82513;SDS011;72858;52.130;5.584;2023-11-21T13:37:12;10.30;;;7.95;;
82513;SDS011;72858;52.130;5.584;2023-11-21T13:39:37;10.68;;;7.78;;
82513;SDS011;72858;52.130;5.584;2023-11-21T13:42:09;10.02;;;7.18;;
82513;SDS011;72858;52.130;5.584;2023-11-21T13:44:36;7.93;;;6.25;;
82513;SDS011;72858;52.130;5.584;2023-11-21T13:47:03;8.05;;;6.20;;
82513;SDS011;72858;52.130;5.584;2023-11-21T13:49:28;9.45;;;6.63;;
82513;SDS011;72858;52.130;5.584;2023-11-21T13:51:56;8.82;;;6.85;;
82513;SDS011;72858;52.130;5.584;2023-11-21T13:54:23;8.02;;;6.43;;
82513;SDS011;72858;52.130;5.584;2023-11-21T13:56:50;10.07;;;7.78;;
82513;SDS011;72858;52.130;5.584;2023-11-21T13:59:15;14.00;;;8.75;;
82513;SDS011;72858;52.130;5.584;2023-11-21T14:01:50;13.02;;;9.40;;
82513;SDS011;72858;52.130;5.584;2023-11-21T14:04:20;16.92;;;9.77;;
82513;SDS011;72858;52.130;5.584;2023-11-21T14:06:59;16.13;;;10.57;;
82513;SDS011;72858;52.130;5.584;2023-11-21T14:09:35;15.45;;;10.68;;
82513;SDS011;72858;52.130;5.584;2023-11-21T14:12:08;18.95;;;12.10;;
82513;SDS011;72858;52.130;5.584;2023-11-21T14:14:37;19.65;;;12.93;;
82513;SDS011;72858;52.130;5.584;2023-11-21T14:17:04;19.52;;;12.77;;
82513;SDS011;72858;52.130;5.584;2023-11-21T14:19:32;19.55;;;12.45;;
82513;SDS011;72858;52.130;5.584;2023-11-21T14:21:57;24.30;;;14.63;;
82513;SDS011;72858;52.130;5.584;2023-11-21T14:24:22;23.77;;;14.53;;
82513;SDS011;72858;52.130;5.584;2023-11-21T14:26:48;26.15;;;15.15;;
82513;SDS011;72858;52.130;5.584;2023-11-21T14:29:14;23.37;;;14.57;;